Terminal Aerodrome Forecast
Issued by NWS

Home | Current Version | Previous Version | Text Only | Print | Product List | Glossary On
Versions: 1 2 3 4 5 6 7 8 9 10 11 12 13 14 15 16
000
FTUS42 TJSJ 180500
TAFJSJ
TAF
TJSJ 180526Z 1806/1906 09006KT P6SM VCSH FEW030 SCT045 BKN070
      TEMPO 1806/1810 VRB10G21KT 5SM -SHRA BKN035
     FM181430 08015KT P6SM FEW025 SCT040 SCT070
     FM182300 08012KT P6SM FEW025 SCT040 BKN070=

USA.gov is the U.S. government's official web portal to all federal, state and local government web resources and services.